createdAt,value
2018-06-30T00:01:14.385Z,14.10
2018-06-30T00:03:48.189Z,14.11
2018-06-30T00:06:16.514Z,14.17
2018-06-30T00:08:44.849Z,14.19
2018-06-30T00:11:13.890Z,14.03
2018-06-30T00:13:44.620Z,14.06
2018-06-30T00:16:13.853Z,14.03
2018-06-30T00:18:43.568Z,14.07
2018-06-30T00:21:13.997Z,13.99
2018-06-30T00:23:42.658Z,13.89
2018-06-30T00:26:11.073Z,13.99
2018-06-30T00:28:40.120Z,13.95
2018-06-30T00:31:08.464Z,13.96
2018-06-30T00:33:37.381Z,13.95
2018-06-30T00:36:05.789Z,13.96
2018-06-30T00:38:34.118Z,13.86
2018-06-30T00:41:02.443Z,13.94
2018-06-30T00:43:30.765Z,13.84
2018-06-30T00:45:59.105Z,13.82
2018-06-30T00:48:27.460Z,13.81
2018-06-30T00:50:55.778Z,13.62
2018-06-30T00:53:25.101Z,13.62
2018-06-30T00:55:53.470Z,13.54
2018-06-30T00:58:21.809Z,13.42
2018-06-30T01:00:50.184Z,13.40
2018-06-30T01:03:18.500Z,13.19
2018-06-30T01:05:46.822Z,13.28
2018-06-30T01:08:15.145Z,13.22
2018-06-30T01:10:44.841Z,13.09
2018-06-30T01:13:14.609Z,13.19
2018-06-30T01:15:44.191Z,13.14
2018-06-30T01:18:13.621Z,13.08
2018-06-30T01:20:44.094Z,13.08
2018-06-30T01:23:14.726Z,13.06
2018-06-30T01:25:44.189Z,12.95
2018-06-30T01:28:14.265Z,13.04
2018-06-30T01:30:44.117Z,12.97
2018-06-30T01:33:14.501Z,12.88
2018-06-30T01:35:43.875Z,12.91
2018-06-30T01:38:14.080Z,12.86
2018-06-30T01:40:44.261Z,12.81
2018-06-30T01:43:14.943Z,12.74
2018-06-30T01:45:44.209Z,12.70
2018-06-30T01:48:14.698Z,12.77
2018-06-30T01:50:44.029Z,12.58
2018-06-30T01:53:14.045Z,12.62
2018-06-30T01:55:44.014Z,12.56
2018-06-30T01:58:13.601Z,12.61
2018-06-30T02:00:43.435Z,12.60
2018-06-30T02:03:11.777Z,12.68
2018-06-30T02:05:41.235Z,12.60
2018-06-30T02:08:11.098Z,12.49
2018-06-30T02:10:39.915Z,12.38
2018-06-30T02:13:08.235Z,12.41
2018-06-30T02:15:36.601Z,12.25
2018-06-30T02:18:04.925Z,12.33
2018-06-30T02:20:33.296Z,12.27
2018-06-30T02:23:01.613Z,12.17
2018-06-30T02:25:29.994Z,12.14
2018-06-30T02:27:58.308Z,12.11
2018-06-30T02:30:26.617Z,12.02
2018-06-30T02:32:54.981Z,12.14
2018-06-30T02:35:23.330Z,12.16
2018-06-30T02:37:51.667Z,11.98
2018-06-30T02:40:20.049Z,11.91
2018-06-30T02:42:48.387Z,11.89
2018-06-30T02:45:16.706Z,11.77
2018-06-30T02:47:45.026Z,11.85
2018-06-30T02:50:14.341Z,11.94
2018-06-30T02:52:42.737Z,11.82
2018-06-30T02:55:13.265Z,11.76
2018-06-30T02:57:43.187Z,11.77
2018-06-30T03:00:12.870Z,11.66
2018-06-30T03:02:43.013Z,11.60
2018-06-30T03:05:13.179Z,11.58
2018-06-30T03:07:42.217Z,11.55
2018-06-30T03:10:11.137Z,11.59
2018-06-30T03:12:40.148Z,11.70
2018-06-30T03:15:08.521Z,11.63
2018-06-30T03:17:36.850Z,11.53
2018-06-30T03:20:05.464Z,11.53
2018-06-30T03:22:33.793Z,11.60
2018-06-30T03:25:02.209Z,11.35
2018-06-30T03:27:30.574Z,11.41
2018-06-30T03:29:58.901Z,11.53
2018-06-30T03:32:27.221Z,11.43
2018-06-30T03:34:55.602Z,11.38
2018-06-30T03:37:23.923Z,11.36
2018-06-30T03:39:52.241Z,11.34
2018-06-30T03:42:20.570Z,11.25
2018-06-30T03:44:48.906Z,11.29
2018-06-30T03:47:17.362Z,11.27
2018-06-30T03:49:45.689Z,11.33
2018-06-30T03:52:15.354Z,11.41
2018-06-30T03:54:44.895Z,11.43
2018-06-30T03:57:14.569Z,11.45
2018-06-30T03:59:43.967Z,11.51
2018-06-30T04:02:13.272Z,11.59
2018-06-30T04:04:44.146Z,11.58
2018-06-30T04:07:13.619Z,11.50
2018-06-30T04:09:42.646Z,11.68
2018-06-30T04:12:13.053Z,11.78
2018-06-30T04:14:43.177Z,11.94
2018-06-30T04:17:13.146Z,11.83
2018-06-30T04:19:43.306Z,11.99
2018-06-30T04:22:14.131Z,11.92
2018-06-30T04:24:43.273Z,12.00
2018-06-30T04:27:12.609Z,12.18
2018-06-30T04:29:41.613Z,12.13
2018-06-30T04:32:10.602Z,12.17
2018-06-30T04:34:38.987Z,12.16
2018-06-30T04:37:07.365Z,12.40
2018-06-30T04:39:35.686Z,12.40
2018-06-30T04:42:04.034Z,12.43
2018-06-30T04:44:32.354Z,12.38
2018-06-30T04:47:00.711Z,12.49
2018-06-30T04:49:29.029Z,12.60
2018-06-30T04:51:57.354Z,12.72
2018-06-30T04:54:25.750Z,12.80
2018-06-30T04:56:54.069Z,12.89
2018-06-30T04:59:22.443Z,13.00
2018-06-30T05:01:50.809Z,13.00
2018-06-30T05:04:19.605Z,13.18
2018-06-30T05:06:47.923Z,13.13
2018-06-30T05:09:16.317Z,13.37
2018-06-30T05:11:44.698Z,13.22
2018-06-30T05:14:13.830Z,13.38
2018-06-30T05:16:43.598Z,13.44
2018-06-30T05:19:12.973Z,13.52
2018-06-30T05:21:43.057Z,13.53
2018-06-30T05:24:13.367Z,13.64
2018-06-30T05:26:42.694Z,13.63
2018-06-30T05:29:13.261Z,13.84
2018-06-30T05:31:43.681Z,13.87
2018-06-30T05:34:13.692Z,13.92
2018-06-30T05:36:43.873Z,14.07
2018-06-30T05:39:16.601Z,14.16
2018-06-30T05:41:45.440Z,14.22
2018-06-30T05:44:15.172Z,14.45
2018-06-30T05:46:44.734Z,14.54
2018-06-30T05:49:14.025Z,14.65
2018-06-30T05:51:44.286Z,14.66
2018-06-30T05:54:14.351Z,14.74
2018-06-30T05:56:44.425Z,14.80
2018-06-30T05:59:14.068Z,14.90
2018-06-30T06:01:42.905Z,15.08
2018-06-30T06:04:11.280Z,15.05
2018-06-30T06:06:39.723Z,15.16
2018-06-30T06:09:09.409Z,15.22
2018-06-30T06:11:37.803Z,15.28
2018-06-30T06:14:06.294Z,15.37
2018-06-30T06:16:34.638Z,15.36
2018-06-30T06:19:03.175Z,15.37
2018-06-30T06:21:31.577Z,15.61
2018-06-30T06:23:59.997Z,15.70
2018-06-30T06:26:28.348Z,15.80
2018-06-30T06:28:56.675Z,15.84
2018-06-30T06:31:25.277Z,15.94
2018-06-30T06:33:53.629Z,16.09
2018-06-30T06:36:22.346Z,16.10
2018-06-30T06:39:06.645Z,16.11
2018-06-30T06:41:35.311Z,16.31
2018-06-30T06:44:04.636Z,16.57
2018-06-30T06:46:32.986Z,16.58
2018-06-30T06:49:01.316Z,16.60
2018-06-30T06:51:29.663Z,16.39
2018-06-30T06:53:57.986Z,16.52
2018-06-30T06:56:26.334Z,16.61
2018-06-30T06:58:54.685Z,16.75
2018-06-30T07:01:23.055Z,16.82
2018-06-30T07:03:51.382Z,16.89
2018-06-30T07:06:19.725Z,16.93
2018-06-30T07:08:48.054Z,16.94
2018-06-30T07:11:16.377Z,17.00
2018-06-30T07:13:44.750Z,16.99
2018-06-30T07:16:14.229Z,16.89
2018-06-30T07:18:43.206Z,17.14
2018-06-30T07:21:13.230Z,17.15
2018-06-30T07:23:43.307Z,17.35
2018-06-30T07:26:13.359Z,17.37
2018-06-30T07:28:42.842Z,17.54
2018-06-30T07:31:12.639Z,17.39
2018-06-30T07:33:43.287Z,17.42
2018-06-30T07:36:14.045Z,17.37
2018-06-30T07:38:44.056Z,17.75
2018-06-30T07:41:12.909Z,17.88
2018-06-30T07:43:43.821Z,17.90
2018-06-30T07:46:12.809Z,18.06
2018-06-30T07:48:43.109Z,18.09
2018-06-30T07:51:13.319Z,18.24
2018-06-30T07:53:43.406Z,17.93
2018-06-30T07:56:12.902Z,18.09
2018-06-30T07:58:43.525Z,18.19
2018-06-30T08:01:13.893Z,18.51
2018-06-30T08:03:44.366Z,18.56
2018-06-30T08:06:15.026Z,18.64
2018-06-30T08:08:44.266Z,18.51
2018-06-30T08:11:12.657Z,18.48
2018-06-30T08:13:42.034Z,18.63
2018-06-30T08:16:10.440Z,18.76
2018-06-30T08:18:38.765Z,18.83
2018-06-30T08:21:07.130Z,19.00
2018-06-30T08:23:35.514Z,18.90
2018-06-30T08:26:03.957Z,19.04
2018-06-30T08:28:32.293Z,19.07
2018-06-30T08:31:00.689Z,19.03
2018-06-30T08:33:29.046Z,19.12
2018-06-30T08:35:57.525Z,19.21
2018-06-30T08:38:26.040Z,19.56
2018-06-30T08:40:54.554Z,19.60
2018-06-30T08:43:22.883Z,19.83
2018-06-30T08:45:51.209Z,19.73
2018-06-30T08:48:19.542Z,19.81
2018-06-30T08:50:47.865Z,20.24
2018-06-30T08:53:17.085Z,20.53
2018-06-30T08:55:45.507Z,20.83
2018-06-30T08:58:14.261Z,20.71
2018-06-30T09:00:44.264Z,20.20
2018-06-30T09:03:14.477Z,20.15
2018-06-30T09:05:44.006Z,20.21
2018-06-30T09:08:13.905Z,20.15
2018-06-30T09:10:44.336Z,19.99
2018-06-30T09:13:12.749Z,20.42
2018-06-30T09:15:42.101Z,20.80
2018-06-30T09:18:10.455Z,20.95
2018-06-30T09:20:38.778Z,21.12
2018-06-30T09:23:07.282Z,21.23
2018-06-30T09:25:36.645Z,20.95
2018-06-30T09:28:05.097Z,21.29
2018-06-30T09:30:33.425Z,21.00
2018-06-30T09:33:01.774Z,20.86
2018-06-30T09:35:30.103Z,20.42
2018-06-30T09:37:58.615Z,20.49
2018-06-30T09:40:26.918Z,20.03
2018-06-30T09:42:55.288Z,19.97
2018-06-30T09:45:23.647Z,19.80
2018-06-30T09:47:51.973Z,19.81
2018-06-30T09:50:20.317Z,19.96
2018-06-30T09:52:49.663Z,20.04
2018-06-30T09:55:17.989Z,20.29
2018-06-30T09:57:46.350Z,20.39
2018-06-30T10:00:21.193Z,20.38
2018-06-30T10:02:55.840Z,20.39
2018-06-30T10:05:25.725Z,20.20
2018-06-30T10:07:55.325Z,20.16
2018-06-30T10:10:25.274Z,20.06
2018-06-30T10:12:55.249Z,20.05
2018-06-30T10:15:25.136Z,20.38
2018-06-30T10:17:55.745Z,20.84
2018-06-30T10:20:31.706Z,21.10
2018-06-30T10:23:06.489Z,20.97
2018-06-30T10:25:40.124Z,20.97
2018-06-30T10:28:14.072Z,20.35
2018-06-30T10:30:44.232Z,20.27
2018-06-30T10:33:14.790Z,20.63
2018-06-30T10:35:43.785Z,21.01
2018-06-30T10:38:13.306Z,21.47
2018-06-30T10:40:43.381Z,21.37
2018-06-30T10:43:13.333Z,21.88
2018-06-30T10:45:43.290Z,22.48
2018-06-30T10:48:13.349Z,22.73
2018-06-30T10:50:42.896Z,22.77
2018-06-30T10:53:12.625Z,23.05
2018-06-30T10:55:42.410Z,23.38
2018-06-30T10:58:12.841Z,23.29
2018-06-30T11:00:43.626Z,22.23
2018-06-30T11:03:13.629Z,21.67
2018-06-30T11:05:43.726Z,21.40
2018-06-30T11:08:13.314Z,20.96
2018-06-30T11:10:43.395Z,20.71
2018-06-30T11:13:12.801Z,20.91
2018-06-30T11:15:42.546Z,21.65
2018-06-30T11:18:12.116Z,22.25
2018-06-30T11:20:40.517Z,22.52
2018-06-30T11:23:08.866Z,22.49
2018-06-30T11:25:37.189Z,22.02
2018-06-30T11:28:05.643Z,21.41
2018-06-30T11:30:33.957Z,21.18
2018-06-30T11:33:02.273Z,21.05
2018-06-30T11:35:30.597Z,20.75
2018-06-30T11:37:58.922Z,20.64
2018-06-30T11:40:27.290Z,20.69
2018-06-30T11:42:56.629Z,21.08
2018-06-30T11:45:24.972Z,21.48
2018-06-30T11:47:53.294Z,22.48
2018-06-30T11:50:21.659Z,23.07
2018-06-30T11:52:49.985Z,22.96
2018-06-30T11:55:18.310Z,22.60
2018-06-30T11:57:46.662Z,22.43
2018-06-30T12:00:14.981Z,22.32
2018-06-30T12:02:44.405Z,21.68
2018-06-30T12:05:12.765Z,21.95
2018-06-30T12:07:42.213Z,22.01
2018-06-30T12:10:12.516Z,22.26
2018-06-30T12:12:42.208Z,22.38
2018-06-30T12:15:13.011Z,22.82
2018-06-30T12:17:43.534Z,23.40
2018-06-30T12:20:13.186Z,22.76
2018-06-30T12:22:42.518Z,22.23
2018-06-30T12:25:11.590Z,21.57
2018-06-30T12:27:40.068Z,21.41
2018-06-30T12:30:08.734Z,21.66
2018-06-30T12:32:37.054Z,21.30
2018-06-30T12:35:05.421Z,21.66
2018-06-30T12:37:33.738Z,21.89
2018-06-30T12:40:02.065Z,22.74
2018-06-30T12:42:30.378Z,23.00
2018-06-30T12:44:58.737Z,23.19
2018-06-30T12:47:27.060Z,23.09
2018-06-30T12:49:55.445Z,22.68
2018-06-30T12:52:23.776Z,23.09
2018-06-30T12:54:52.128Z,22.84
2018-06-30T12:57:20.465Z,22.76
2018-06-30T12:59:48.781Z,22.81
2018-06-30T13:02:17.111Z,22.79
2018-06-30T13:04:45.438Z,23.48
2018-06-30T13:07:14.334Z,23.50
2018-06-30T13:09:44.358Z,23.00
2018-06-30T13:12:14.249Z,23.82
2018-06-30T13:14:44.472Z,23.55
2018-06-30T13:17:12.866Z,23.16
2018-06-30T13:19:41.666Z,22.72
2018-06-30T13:22:10.162Z,22.47
2018-06-30T13:24:38.870Z,22.11
2018-06-30T13:27:07.197Z,21.86
2018-06-30T13:29:35.567Z,21.94
2018-06-30T13:32:03.929Z,22.19
2018-06-30T13:34:32.297Z,22.13
2018-06-30T13:37:00.650Z,22.26
2018-06-30T13:39:28.977Z,22.16
2018-06-30T13:41:57.303Z,22.46
2018-06-30T13:44:25.642Z,23.26
2018-06-30T13:46:53.986Z,24.00
2018-06-30T13:49:22.316Z,23.90
2018-06-30T13:51:50.650Z,24.86
2018-06-30T13:54:19.026Z,24.67
2018-06-30T13:56:47.359Z,23.80
2018-06-30T13:59:15.689Z,23.49
2018-06-30T14:01:44.949Z,22.87
2018-06-30T14:04:15.063Z,22.30
2018-06-30T14:06:43.979Z,22.29
2018-06-30T14:09:15.341Z,22.65
2018-06-30T14:11:44.781Z,23.70
2018-06-30T14:14:14.471Z,24.30
2018-06-30T14:16:45.294Z,24.06
2018-06-30T14:19:14.629Z,24.17
2018-06-30T14:21:45.119Z,23.65
2018-06-30T14:24:14.094Z,22.53
2018-06-30T14:26:44.356Z,22.41
2018-06-30T14:29:15.033Z,22.21
2018-06-30T14:31:44.502Z,22.07
2018-06-30T14:34:13.926Z,21.95
2018-06-30T14:36:43.643Z,21.81
2018-06-30T14:39:13.473Z,22.15
2018-06-30T14:41:43.715Z,22.94
2018-06-30T14:44:14.213Z,24.41
2018-06-30T14:46:44.001Z,25.37
2018-06-30T14:49:13.673Z,25.79
2018-06-30T14:51:44.154Z,26.61
2018-06-30T14:54:14.867Z,27.32
2018-06-30T14:56:44.487Z,25.95
2018-06-30T14:59:13.903Z,24.18
2018-06-30T15:01:43.686Z,22.88
2018-06-30T15:04:14.281Z,23.16
2018-06-30T15:06:44.534Z,24.28
2018-06-30T15:09:14.337Z,25.27
2018-06-30T15:11:45.642Z,25.99
2018-06-30T15:14:15.548Z,27.37
2018-06-30T15:16:45.605Z,27.24
2018-06-30T15:19:15.375Z,28.13
2018-06-30T15:21:44.799Z,27.97
2018-06-30T15:24:14.293Z,27.37
2018-06-30T15:26:44.718Z,27.44
2018-06-30T15:29:15.334Z,27.67
2018-06-30T15:31:44.806Z,28.43
2018-06-30T15:34:14.538Z,28.26
2018-06-30T15:36:43.874Z,28.31
2018-06-30T15:39:13.907Z,27.80
2018-06-30T15:41:43.473Z,27.58
2018-06-30T15:44:12.892Z,26.49
2018-06-30T15:46:41.696Z,25.98
2018-06-30T15:49:10.088Z,25.80
2018-06-30T15:51:38.446Z,25.02
2018-06-30T15:54:06.822Z,24.69
2018-06-30T15:56:36.113Z,24.78
2018-06-30T15:59:04.616Z,24.92
2018-06-30T16:01:33.038Z,24.91
2018-06-30T16:04:01.421Z,24.32
2018-06-30T16:06:30.856Z,23.94
2018-06-30T16:08:59.197Z,23.48
2018-06-30T16:11:27.569Z,23.08
2018-06-30T16:13:55.902Z,22.82
2018-06-30T16:16:24.263Z,22.84
2018-06-30T16:18:52.651Z,23.09
2018-06-30T16:21:20.981Z,22.61
2018-06-30T16:23:49.361Z,22.53
2018-06-30T16:26:17.781Z,22.34
2018-06-30T16:28:46.158Z,21.86
2018-06-30T16:31:16.007Z,21.60
2018-06-30T16:33:44.831Z,21.21
2018-06-30T16:36:14.846Z,21.29
2018-06-30T16:38:44.776Z,21.39
2018-06-30T16:41:14.819Z,21.31
2018-06-30T16:43:44.989Z,21.31
2018-06-30T16:46:14.341Z,21.17
2018-06-30T16:48:44.566Z,21.26
2018-06-30T16:51:14.049Z,21.27
2018-06-30T16:53:44.093Z,21.47
2018-06-30T16:56:13.993Z,21.63
2018-06-30T16:58:43.272Z,21.79
2018-06-30T17:01:12.694Z,21.75
2018-06-30T17:03:41.611Z,21.86
2018-06-30T17:06:10.656Z,21.69
2018-06-30T17:08:38.990Z,21.54
2018-06-30T17:11:07.404Z,20.87
2018-06-30T17:13:35.764Z,20.59
2018-06-30T17:16:04.270Z,20.50
2018-06-30T17:18:32.685Z,20.12
2018-06-30T17:21:01.011Z,20.23
2018-06-30T17:23:29.393Z,20.34
2018-06-30T17:25:57.776Z,20.22
2018-06-30T17:28:26.089Z,20.16
2018-06-30T17:30:54.437Z,20.58
2018-06-30T17:33:22.757Z,20.78
2018-06-30T17:35:51.350Z,20.67
2018-06-30T17:38:19.733Z,20.62
2018-06-30T17:40:48.085Z,20.33
2018-06-30T17:43:16.422Z,20.16
2018-06-30T17:45:44.757Z,19.97
2018-06-30T17:48:14.633Z,19.83
2018-06-30T17:50:44.217Z,19.79
2018-06-30T17:53:14.289Z,19.75
2018-06-30T17:55:44.009Z,19.78
2018-06-30T17:58:14.046Z,19.75
2018-06-30T18:00:44.002Z,19.61
2018-06-30T18:03:13.950Z,19.66
2018-06-30T18:05:43.290Z,19.59
2018-06-30T18:08:13.125Z,19.58
2018-06-30T18:10:43.081Z,19.47
2018-06-30T18:13:13.071Z,19.38
2018-06-30T18:15:44.141Z,19.31
2018-06-30T18:18:14.021Z,19.28
2018-06-30T18:20:43.365Z,19.13
2018-06-30T18:23:11.749Z,19.01
2018-06-30T18:25:40.776Z,18.82
2018-06-30T18:28:09.113Z,18.66
2018-06-30T18:30:37.493Z,18.59
2018-06-30T18:33:05.837Z,18.39
2018-06-30T18:35:34.399Z,18.26
2018-06-30T18:38:02.780Z,18.22
2018-06-30T18:40:31.131Z,18.21
2018-06-30T18:42:59.883Z,18.00
2018-06-30T18:45:28.217Z,17.93
2018-06-30T18:47:56.553Z,18.02
2018-06-30T18:50:24.881Z,17.85
2018-06-30T18:52:53.265Z,17.80
2018-06-30T18:55:21.627Z,17.66
2018-06-30T18:57:49.984Z,17.70
2018-06-30T19:00:18.451Z,17.73
2018-06-30T19:02:46.821Z,17.71
2018-06-30T19:05:15.153Z,17.63
2018-06-30T19:07:44.080Z,17.52
2018-06-30T19:10:13.301Z,17.46
2018-06-30T19:12:42.689Z,17.37
2018-06-30T19:15:11.746Z,17.18
2018-06-30T19:17:42.925Z,17.18
2018-06-30T19:20:13.316Z,17.01
2018-06-30T19:22:42.803Z,16.92
2018-06-30T19:25:11.713Z,16.82
2018-06-30T19:27:40.227Z,16.68
2018-06-30T19:30:08.598Z,16.52
2018-06-30T19:32:36.946Z,16.33
2018-06-30T19:35:05.327Z,16.21
2018-06-30T19:37:34.725Z,16.15
2018-06-30T19:40:03.140Z,16.04
2018-06-30T19:42:31.591Z,15.90
2018-06-30T19:44:59.931Z,15.74
2018-06-30T19:47:28.530Z,15.63
2018-06-30T19:49:56.986Z,15.56
2018-06-30T19:52:25.322Z,15.81
2018-06-30T19:54:53.779Z,15.64
2018-06-30T19:57:22.213Z,15.65
2018-06-30T19:59:50.548Z,15.51
2018-06-30T20:02:18.898Z,15.46
2018-06-30T20:04:47.251Z,15.33
2018-06-30T20:07:15.783Z,15.32
2018-06-30T20:09:45.226Z,15.49
2018-06-30T20:12:14.597Z,15.28
2018-06-30T20:14:44.342Z,15.13
2018-06-30T20:17:14.482Z,14.99
2018-06-30T20:19:45.265Z,15.15
2018-06-30T20:22:14.904Z,15.04
2018-06-30T20:24:44.709Z,15.22
2018-06-30T20:27:14.748Z,15.22
2018-06-30T20:29:44.590Z,15.13
2018-06-30T20:32:14.490Z,15.26
2018-06-30T20:34:44.713Z,15.09
2018-06-30T20:37:14.373Z,15.01
2018-06-30T20:39:45.196Z,15.11
2018-06-30T20:42:14.672Z,15.22
2018-06-30T20:44:44.719Z,15.16
2018-06-30T20:47:14.069Z,14.96
2018-06-30T20:49:45.053Z,15.00
2018-06-30T20:52:15.074Z,14.94
2018-06-30T20:54:44.722Z,14.78
2018-06-30T20:57:13.889Z,14.71
2018-06-30T20:59:44.983Z,14.63
2018-06-30T21:02:15.469Z,14.67
2018-06-30T21:04:44.975Z,14.52
2018-06-30T21:07:14.349Z,14.39
2018-06-30T21:09:45.345Z,14.48
2018-06-30T21:12:15.213Z,14.32
2018-06-30T21:14:44.389Z,14.27
2018-06-30T21:17:14.641Z,14.38
2018-06-30T21:19:44.597Z,14.16
2018-06-30T21:22:14.083Z,14.09
2018-06-30T21:24:43.533Z,14.04
2018-06-30T21:27:13.075Z,13.96
2018-06-30T21:29:43.288Z,13.88
2018-06-30T21:32:12.690Z,13.80
2018-06-30T21:34:43.625Z,13.68
2018-06-30T21:37:12.754Z,13.55
2018-06-30T21:39:41.708Z,13.45
2018-06-30T21:42:10.037Z,13.49
2018-06-30T21:44:39.355Z,13.32
2018-06-30T21:47:07.993Z,13.27
2018-06-30T21:49:36.356Z,13.16
2018-06-30T21:52:04.734Z,13.11
2018-06-30T21:54:33.062Z,13.24
2018-06-30T21:57:01.449Z,13.18
2018-06-30T21:59:29.845Z,13.26
2018-06-30T22:01:58.180Z,13.13
2018-06-30T22:04:26.510Z,13.08
2018-06-30T22:06:54.962Z,13.19
2018-06-30T22:09:24.145Z,13.23
2018-06-30T22:11:52.560Z,13.13
2018-06-30T22:14:20.943Z,13.34
2018-06-30T22:16:49.282Z,13.16
2018-06-30T22:19:17.608Z,13.09
2018-06-30T22:21:45.984Z,13.06
2018-06-30T22:24:15.069Z,13.25
2018-06-30T22:26:44.514Z,13.18
2018-06-30T22:29:14.307Z,13.31
2018-06-30T22:31:43.712Z,13.18
2018-06-30T22:34:12.757Z,13.24
2018-06-30T22:36:42.281Z,13.22
2018-06-30T22:39:12.781Z,13.32
2018-06-30T22:41:42.457Z,13.24
2018-06-30T22:44:11.693Z,13.20
2018-06-30T22:46:40.026Z,12.96
2018-06-30T22:49:08.357Z,12.91
2018-06-30T22:51:36.808Z,12.94
2018-06-30T22:54:05.141Z,12.79
2018-06-30T22:56:33.499Z,12.87
2018-06-30T22:59:01.841Z,12.75
2018-06-30T23:01:30.206Z,12.57
2018-06-30T23:03:58.533Z,12.71
2018-06-30T23:06:26.907Z,12.40
2018-06-30T23:08:55.228Z,12.30
2018-06-30T23:11:24.404Z,12.40
2018-06-30T23:13:53.037Z,12.43
2018-06-30T23:16:27.897Z,12.51
2018-06-30T23:18:56.219Z,12.46
2018-06-30T23:21:24.588Z,12.33
2018-06-30T23:23:52.925Z,12.42
2018-06-30T23:26:21.287Z,12.49
2018-06-30T23:28:49.653Z,12.50
2018-06-30T23:31:17.973Z,12.31
2018-06-30T23:33:46.350Z,12.30
2018-06-30T23:36:15.909Z,12.33
2018-06-30T23:38:45.566Z,12.15
2018-06-30T23:41:14.670Z,12.04
2018-06-30T23:43:44.569Z,12.03
2018-06-30T23:46:14.436Z,11.90
2018-06-30T23:48:44.193Z,12.03
2018-06-30T23:51:14.651Z,12.21
2018-06-30T23:53:44.354Z,12.06
2018-06-30T23:56:14.710Z,12.17
2018-06-30T23:58:44.185Z,12.10
